Terminal Aerodrome Forecast
Issued by NWS

Current Version | Previous Version | Text Only | Print | Product List | Glossary On
Versions: 1 2 3 4 5 6 7 8 9 10 11 12 13 14 15 16
363
FTUS45 KTFX 231146
TAFGTF
TAF
KGTF 231146Z 2312/2412 28005KT P6SM SCT060 BKN090
      TEMPO 2316/2319 -SHRA BKN040
     FM231900 31008KT P6SM -SHRA SCT025 BKN040
     FM232300 23009KT P6SM SCT040 BKN060=

USA.gov is the U.S. government's official web portal to all federal, state and local government web resources and services.